createdAt,value
2023-01-21T00:04:38.279Z,54.70
2023-01-21T00:09:44.657Z,63.30
2023-01-21T00:14:49.402Z,68.20
2023-01-21T00:19:55.287Z,1.00
2023-01-21T00:24:59.915Z,13.70
2023-01-21T00:30:05.376Z,44.20
2023-01-21T00:35:13.454Z,76.90
2023-01-21T00:40:24.546Z,99.90
2023-01-21T00:45:27.498Z,99.90
2023-01-21T00:50:32.339Z,99.90
2023-01-21T00:55:38.516Z,99.90
2023-01-21T01:00:41.923Z,99.90
2023-01-21T01:05:47.173Z,99.90
2023-01-21T01:10:51.175Z,99.90
2023-01-21T01:15:55.962Z,99.90
2023-01-21T01:20:58.698Z,93.00
2023-01-21T01:26:04.991Z,99.90
2023-01-21T01:31:10.047Z,99.90
2023-01-21T01:36:15.828Z,99.90
2023-01-21T01:41:24.291Z,99.90
2023-01-21T01:46:29.561Z,99.90
2023-01-21T01:51:41.286Z,99.90
2023-01-21T01:56:50.585Z,99.90
2023-01-21T02:01:53.787Z,99.90
2023-01-21T02:06:58.367Z,99.90
2023-01-21T02:12:04.686Z,99.90
2023-01-21T02:17:21.906Z,99.90
2023-01-21T02:22:30.296Z,99.90
2023-01-21T02:27:44.366Z,99.90
2023-01-21T02:33:15.694Z,99.90
2023-01-21T02:38:31.338Z,99.90
2023-01-21T02:43:44.297Z,99.90
2023-01-21T02:48:55.231Z,99.90
2023-01-21T02:53:58.516Z,99.90
2023-01-21T02:59:04.397Z,99.90
2023-01-21T03:04:21.134Z,99.90
2023-01-21T03:09:25.943Z,99.90
2023-01-21T03:14:50.433Z,99.90
2023-01-21T03:20:00.533Z,99.90
2023-01-21T03:25:05.827Z,99.90
2023-01-21T03:30:13.756Z,99.90
2023-01-21T03:35:22.117Z,99.90
2023-01-21T03:40:29.533Z,99.90
2023-01-21T03:45:42.018Z,99.90
2023-01-21T03:50:51.757Z,99.90
2023-01-21T03:55:54.427Z,99.90
2023-01-21T04:00:57.293Z,99.90
2023-01-21T04:06:01.558Z,99.90
2023-01-21T04:11:04.297Z,99.90
2023-01-21T04:16:07.875Z,99.90
2023-01-21T04:21:12.024Z,99.90
2023-01-21T04:26:16.404Z,99.90
2023-01-21T04:31:19.128Z,99.90
2023-01-21T04:36:23.159Z,99.90
2023-01-21T04:41:25.885Z,99.90
2023-01-21T04:46:28.533Z,99.90
2023-01-21T04:51:32.520Z,99.90
2023-01-21T04:56:35.195Z,99.90
2023-01-21T05:01:37.904Z,99.90
2023-01-21T05:06:41.897Z,99.90
2023-01-21T05:11:44.594Z,99.90
2023-01-21T05:16:47.377Z,99.90
2023-01-21T05:21:51.364Z,99.90
2023-01-21T05:26:54.045Z,99.90
2023-01-21T05:31:56.778Z,99.90
2023-01-21T05:37:00.755Z,99.90
2023-01-21T05:42:03.412Z,99.90
2023-01-21T05:47:07.589Z,99.90
2023-01-21T05:52:11.630Z,99.90
2023-01-21T05:57:14.512Z,99.90
2023-01-21T06:02:17.273Z,99.90
2023-01-21T06:07:21.541Z,99.90
2023-01-21T06:12:25.002Z,99.90
2023-01-21T06:17:27.715Z,99.90
2023-01-21T06:22:31.765Z,99.90
2023-01-21T06:27:37.160Z,99.90
2023-01-21T06:32:40.135Z,99.90
2023-01-21T06:37:45.368Z,99.90
2023-01-21T06:42:49.207Z,99.90
2023-01-21T06:47:51.900Z,99.90
2023-01-21T06:52:55.866Z,99.90
2023-01-21T06:57:58.552Z,99.90
2023-01-21T07:03:01.604Z,99.90
2023-01-21T07:08:05.767Z,99.90
2023-01-21T07:13:08.425Z,99.90
2023-01-21T07:18:11.058Z,99.90
2023-01-21T07:23:15.052Z,99.90
2023-01-21T07:28:17.729Z,99.90
2023-01-21T07:33:20.415Z,99.90
2023-01-21T07:38:24.397Z,99.90
2023-01-21T07:43:28.172Z,99.90
2023-01-21T07:48:30.942Z,99.90
2023-01-21T07:53:35.126Z,99.90
2023-01-21T07:58:38.416Z,99.90
2023-01-21T08:03:41.044Z,99.90
2023-01-21T08:08:45.054Z,99.90
2023-01-21T08:13:47.764Z,99.90
2023-01-21T08:18:50.719Z,99.90
2023-01-21T08:23:54.705Z,99.90
2023-01-21T08:28:57.356Z,99.90
2023-01-21T08:34:00.366Z,99.90
2023-01-21T08:39:06.385Z,99.90
2023-01-21T08:44:09.313Z,99.90
2023-01-21T08:49:11.952Z,99.90
2023-01-21T08:54:16.067Z,99.90
2023-01-21T08:59:21.784Z,99.90
2023-01-21T09:04:24.648Z,99.90
2023-01-21T09:09:28.803Z,99.90
2023-01-21T09:14:31.452Z,99.90
2023-01-21T09:19:34.085Z,99.90
2023-01-21T09:24:38.189Z,72.40
2023-01-21T09:29:41.579Z,83.70
2023-01-21T09:34:44.206Z,36.40
2023-01-21T09:39:49.218Z,83.70
2023-01-21T09:44:53.486Z,1.00
2023-01-21T09:49:59.982Z,1.00
2023-01-21T09:55:06.193Z,30.10
2023-01-21T10:00:28.625Z,1.00
2023-01-21T10:05:45.105Z,1.00
2023-01-21T10:10:53.093Z,31.80
2023-01-21T10:16:06.288Z,1.00
2023-01-21T10:21:17.462Z,1.00
2023-01-21T10:26:21.659Z,1.00
2023-01-21T10:31:26.307Z,1.00
2023-01-21T10:36:58.098Z,1.00
2023-01-21T10:42:38.783Z,1.00
2023-01-21T10:47:50.394Z,1.00
2023-01-21T10:52:59.287Z,1.00
2023-01-21T10:58:11.271Z,1.00
2023-01-21T11:03:17.831Z,1.00
2023-01-21T11:08:24.983Z,1.00
2023-01-21T11:13:29.043Z,1.00
2023-01-21T11:18:35.837Z,1.00
2023-01-21T11:23:40.159Z,1.00
2023-01-21T11:28:45.796Z,1.00
2023-01-21T11:33:48.554Z,1.00
2023-01-21T11:39:02.590Z,1.00
2023-01-21T11:44:17.623Z,1.00
2023-01-21T11:49:28.884Z,99.90
2023-01-21T11:54:39.202Z,99.90
2023-01-21T11:59:47.883Z,99.90
2023-01-21T12:04:53.294Z,99.90
2023-01-21T12:10:04.360Z,99.90
2023-01-21T12:15:21.170Z,1.00
2023-01-21T12:20:32.193Z,1.00
2023-01-21T12:25:45.283Z,1.00
2023-01-21T12:30:58.774Z,1.00
2023-01-21T12:36:05.735Z,1.00
2023-01-21T12:41:13.997Z,1.00
2023-01-21T12:46:21.795Z,1.00
2023-01-21T12:51:28.862Z,1.00
2023-01-21T12:56:38.498Z,5.20
2023-01-21T13:01:49.406Z,99.90
2023-01-21T13:07:00.105Z,99.90
2023-01-21T13:12:06.738Z,99.90
2023-01-21T13:17:17.091Z,99.90
2023-01-21T13:22:35.526Z,99.90
2023-01-21T13:27:45.090Z,99.90
2023-01-21T13:32:54.095Z,99.90
2023-01-21T13:38:02.618Z,99.90
2023-01-21T13:43:15.546Z,99.90
2023-01-21T13:48:56.383Z,99.90
2023-01-21T13:54:12.509Z,99.90
2023-01-21T13:59:19.848Z,99.90
2023-01-21T14:04:30.276Z,99.90
2023-01-21T14:09:38.691Z,99.90
2023-01-21T14:15:05.166Z,99.90
2023-01-21T14:20:23.785Z,99.90
2023-01-21T14:25:37.381Z,99.90
2023-01-21T14:30:44.356Z,99.90
2023-01-21T14:35:55.049Z,99.90
2023-01-21T14:41:06.302Z,99.90
2023-01-21T14:46:28.753Z,99.90
2023-01-21T14:51:35.025Z,99.90
2023-01-21T14:56:39.327Z,99.90
2023-01-21T15:01:45.813Z,99.90
2023-01-21T15:06:53.276Z,99.90
2023-01-21T15:12:00.576Z,99.90
2023-01-21T15:17:03.631Z,99.90
2023-01-21T15:22:40.838Z,99.90
2023-01-21T15:28:23.261Z,99.90
2023-01-21T15:33:28.136Z,99.90
2023-01-21T15:38:31.160Z,99.90
2023-01-21T15:43:39.463Z,99.90
2023-01-21T15:48:59.281Z,99.90
2023-01-21T15:54:15.948Z,99.90
2023-01-21T15:59:47.142Z,99.90
2023-01-21T16:05:07.983Z,99.90
2023-01-21T16:10:20.582Z,99.90
2023-01-21T16:15:32.994Z,99.90
2023-01-21T16:20:37.646Z,99.90
2023-01-21T16:25:47.120Z,99.90
2023-01-21T16:30:57.338Z,99.90
2023-01-21T16:36:07.529Z,99.90
2023-01-21T16:41:25.271Z,99.90
2023-01-21T16:46:32.655Z,99.90
2023-01-21T16:51:42.199Z,99.90
2023-01-21T16:56:48.939Z,99.90
2023-01-21T17:01:52.140Z,99.90
2023-01-21T17:06:56.447Z,99.90
2023-01-21T17:12:04.756Z,99.90
2023-01-21T17:17:09.681Z,99.90
2023-01-21T17:22:17.343Z,99.90
2023-01-21T17:27:23.243Z,99.90
2023-01-21T17:32:31.961Z,99.90
2023-01-21T17:37:47.313Z,99.90
2023-01-21T17:42:52.973Z,99.90
2023-01-21T17:48:14.620Z,99.90
2023-01-21T17:53:25.963Z,99.90
2023-01-21T17:58:46.760Z,99.90
2023-01-21T18:03:49.573Z,99.90
2023-01-21T18:08:54.154Z,99.90
2023-01-21T18:13:56.934Z,99.90
2023-01-21T18:19:00.321Z,99.90
2023-01-21T18:24:05.141Z,99.90
2023-01-21T18:29:11.795Z,99.90
2023-01-21T18:34:15.500Z,99.90
2023-01-21T18:39:23.319Z,99.90
2023-01-21T18:44:26.915Z,99.90
2023-01-21T18:49:30.918Z,99.90
2023-01-21T18:54:35.453Z,99.90
2023-01-21T19:16:40.160Z,99.90
2023-01-21T19:22:06.349Z,99.90
2023-01-21T19:27:22.286Z,99.90
2023-01-21T19:33:04.451Z,99.90
2023-01-21T19:38:34.660Z,99.90
2023-01-21T19:43:59.861Z,99.90
2023-01-21T19:49:10.219Z,99.90
2023-01-21T20:07:12.912Z,99.90
2023-01-21T20:43:07.561Z,99.90
2023-01-21T20:48:42.856Z,99.90
2023-01-21T20:53:52.915Z,99.90
2023-01-21T20:59:17.935Z,99.90
2023-01-21T21:04:34.425Z,99.90
2023-01-21T21:10:04.859Z,99.90
2023-01-21T21:15:27.844Z,99.90
2023-01-21T21:26:38.564Z,99.90
2023-01-21T21:32:12.382Z,99.90
2023-01-21T21:43:29.592Z,99.90
2023-01-21T21:49:16.055Z,99.90
2023-01-21T21:54:48.260Z,99.90
2023-01-21T22:00:08.022Z,99.90
2023-01-21T22:10:56.253Z,99.90
2023-01-21T22:16:00.885Z,99.90
2023-01-21T22:21:07.387Z,99.90
2023-01-21T22:26:12.963Z,99.90
2023-01-21T22:31:18.543Z,99.90
2023-01-21T22:36:24.600Z,99.90
2023-01-21T22:41:27.634Z,99.90
2023-01-21T22:46:31.369Z,99.90
2023-01-21T22:51:35.482Z,99.90
2023-01-21T22:56:51.498Z,99.90
2023-01-21T23:01:55.010Z,99.90
2023-01-21T23:06:58.964Z,99.90
2023-01-21T23:12:01.640Z,99.90
2023-01-21T23:17:04.296Z,99.90
2023-01-21T23:22:08.622Z,99.90
2023-01-21T23:27:11.457Z,99.90
2023-01-21T23:32:14.127Z,99.90
2023-01-21T23:37:18.170Z,99.90
2023-01-21T23:42:22.423Z,99.90
2023-01-21T23:47:25.285Z,99.90
2023-01-21T23:52:29.244Z,99.90
2023-01-21T23:57:32.113Z,99.90
